sensor_id;sensor_type;location;lat;lon;timestamp;P1;durP1;ratioP1;P2;durP2;ratioP2
5904;SDS011;2978;42.012;24.880;2023-08-06T00:02:00;10.83;;;7.17;;
5904;SDS011;2978;42.012;24.880;2023-08-06T00:04:25;8.77;;;7.40;;
5904;SDS011;2978;42.012;24.880;2023-08-06T00:06:50;13.63;;;7.23;;
5904;SDS011;2978;42.012;24.880;2023-08-06T00:09:16;11.30;;;7.60;;
5904;SDS011;2978;42.012;24.880;2023-08-06T00:11:41;14.87;;;7.37;;
5904;SDS011;2978;42.012;24.880;2023-08-06T00:14:08;13.90;;;7.43;;
5904;SDS011;2978;42.012;24.880;2023-08-06T00:16:34;17.53;;;7.83;;
5904;SDS011;2978;42.012;24.880;2023-08-06T00:18:59;13.13;;;7.43;;
5904;SDS011;2978;42.012;24.880;2023-08-06T00:21:25;16.20;;;7.43;;
5904;SDS011;2978;42.012;24.880;2023-08-06T00:23:50;13.13;;;7.23;;
5904;SDS011;2978;42.012;24.880;2023-08-06T00:26:17;16.27;;;8.60;;
5904;SDS011;2978;42.012;24.880;2023-08-06T00:28:42;21.27;;;8.30;;
5904;SDS011;2978;42.012;24.880;2023-08-06T00:31:08;14.00;;;7.57;;
5904;SDS011;2978;42.012;24.880;2023-08-06T00:33:33;15.57;;;7.83;;
5904;SDS011;2978;42.012;24.880;2023-08-06T00:35:58;14.30;;;7.93;;
5904;SDS011;2978;42.012;24.880;2023-08-06T00:38:24;13.50;;;8.00;;
5904;SDS011;2978;42.012;24.880;2023-08-06T00:40:49;12.33;;;8.10;;
5904;SDS011;2978;42.012;24.880;2023-08-06T00:43:15;9.93;;;7.73;;
5904;SDS011;2978;42.012;24.880;2023-08-06T00:45:40;11.70;;;8.03;;
5904;SDS011;2978;42.012;24.880;2023-08-06T00:48:07;11.67;;;8.30;;
5904;SDS011;2978;42.012;24.880;2023-08-06T00:50:32;14.50;;;8.10;;
5904;SDS011;2978;42.012;24.880;2023-08-06T00:52:58;24.10;;;7.60;;
5904;SDS011;2978;42.012;24.880;2023-08-06T00:55:24;16.43;;;7.27;;
5904;SDS011;2978;42.012;24.880;2023-08-06T00:57:50;11.50;;;7.03;;
5904;SDS011;2978;42.012;24.880;2023-08-06T01:00:16;15.00;;;7.93;;
5904;SDS011;2978;42.012;24.880;2023-08-06T01:02:42;12.87;;;8.60;;
5904;SDS011;2978;42.012;24.880;2023-08-06T01:05:07;11.53;;;7.27;;
5904;SDS011;2978;42.012;24.880;2023-08-06T01:10:19;11.50;;;7.37;;
5904;SDS011;2978;42.012;24.880;2023-08-06T01:12:54;13.63;;;7.80;;
5904;SDS011;2978;42.012;24.880;2023-08-06T01:15:39;16.17;;;7.73;;
5904;SDS011;2978;42.012;24.880;2023-08-06T01:18:11;12.10;;;8.37;;
5904;SDS011;2978;42.012;24.880;2023-08-06T01:20:37;10.50;;;8.10;;
5904;SDS011;2978;42.012;24.880;2023-08-06T01:23:02;13.60;;;8.93;;
5904;SDS011;2978;42.012;24.880;2023-08-06T01:25:34;15.97;;;8.90;;
5904;SDS011;2978;42.012;24.880;2023-08-06T01:28:07;15.80;;;8.83;;
5904;SDS011;2978;42.012;24.880;2023-08-06T01:30:41;16.30;;;8.40;;
5904;SDS011;2978;42.012;24.880;2023-08-06T01:33:09;14.73;;;8.50;;
5904;SDS011;2978;42.012;24.880;2023-08-06T01:35:39;11.30;;;8.70;;
5904;SDS011;2978;42.012;24.880;2023-08-06T01:38:07;14.27;;;9.07;;
5904;SDS011;2978;42.012;24.880;2023-08-06T01:40:33;15.17;;;9.10;;
5904;SDS011;2978;42.012;24.880;2023-08-06T01:42:59;12.40;;;10.10;;
5904;SDS011;2978;42.012;24.880;2023-08-06T01:45:24;10.77;;;9.00;;
5904;SDS011;2978;42.012;24.880;2023-08-06T01:47:50;20.13;;;8.67;;
5904;SDS011;2978;42.012;24.880;2023-08-06T01:50:15;14.80;;;8.87;;
5904;SDS011;2978;42.012;24.880;2023-08-06T01:52:40;17.60;;;9.80;;
5904;SDS011;2978;42.012;24.880;2023-08-06T01:55:06;13.57;;;8.07;;
5904;SDS011;2978;42.012;24.880;2023-08-06T01:57:31;16.77;;;9.50;;
5904;SDS011;2978;42.012;24.880;2023-08-06T01:59:57;15.23;;;8.90;;
5904;SDS011;2978;42.012;24.880;2023-08-06T02:02:22;13.23;;;9.30;;
5904;SDS011;2978;42.012;24.880;2023-08-06T02:04:48;11.60;;;8.73;;
5904;SDS011;2978;42.012;24.880;2023-08-06T02:07:13;10.30;;;8.47;;
5904;SDS011;2978;42.012;24.880;2023-08-06T02:09:38;13.40;;;8.30;;
5904;SDS011;2978;42.012;24.880;2023-08-06T02:12:05;16.53;;;10.17;;
5904;SDS011;2978;42.012;24.880;2023-08-06T02:14:31;14.67;;;9.30;;
5904;SDS011;2978;42.012;24.880;2023-08-06T02:16:56;16.20;;;8.90;;
5904;SDS011;2978;42.012;24.880;2023-08-06T02:19:21;12.77;;;9.20;;
5904;SDS011;2978;42.012;24.880;2023-08-06T02:21:47;22.83;;;9.77;;
5904;SDS011;2978;42.012;24.880;2023-08-06T02:24:12;16.40;;;9.63;;
5904;SDS011;2978;42.012;24.880;2023-08-06T02:26:38;14.63;;;9.27;;
5904;SDS011;2978;42.012;24.880;2023-08-06T02:29:03;16.63;;;10.60;;
5904;SDS011;2978;42.012;24.880;2023-08-06T02:31:29;29.87;;;10.47;;
5904;SDS011;2978;42.012;24.880;2023-08-06T02:33:54;22.73;;;10.63;;
5904;SDS011;2978;42.012;24.880;2023-08-06T02:36:20;16.87;;;9.70;;
5904;SDS011;2978;42.012;24.880;2023-08-06T02:38:45;14.50;;;9.50;;
5904;SDS011;2978;42.012;24.880;2023-08-06T02:41:11;15.90;;;9.77;;
5904;SDS011;2978;42.012;24.880;2023-08-06T02:43:36;15.73;;;8.40;;
5904;SDS011;2978;42.012;24.880;2023-08-06T02:46:01;10.17;;;7.67;;
5904;SDS011;2978;42.012;24.880;2023-08-06T02:48:27;12.90;;;9.47;;
5904;SDS011;2978;42.012;24.880;2023-08-06T02:50:56;14.63;;;8.97;;
5904;SDS011;2978;42.012;24.880;2023-08-06T02:53:23;15.57;;;9.00;;
5904;SDS011;2978;42.012;24.880;2023-08-06T02:55:48;16.20;;;9.30;;
5904;SDS011;2978;42.012;24.880;2023-08-06T02:58:14;13.10;;;9.60;;
5904;SDS011;2978;42.012;24.880;2023-08-06T03:00:40;12.67;;;9.20;;
5904;SDS011;2978;42.012;24.880;2023-08-06T03:03:06;16.00;;;11.20;;
5904;SDS011;2978;42.012;24.880;2023-08-06T03:05:31;15.20;;;9.90;;
5904;SDS011;2978;42.012;24.880;2023-08-06T03:07:56;15.30;;;9.93;;
5904;SDS011;2978;42.012;24.880;2023-08-06T03:10:22;11.80;;;8.53;;
5904;SDS011;2978;42.012;24.880;2023-08-06T03:12:47;12.03;;;8.40;;
5904;SDS011;2978;42.012;24.880;2023-08-06T03:15:13;11.50;;;8.70;;
5904;SDS011;2978;42.012;24.880;2023-08-06T03:17:38;13.00;;;8.17;;
5904;SDS011;2978;42.012;24.880;2023-08-06T03:20:04;13.93;;;8.40;;
5904;SDS011;2978;42.012;24.880;2023-08-06T03:22:30;9.90;;;8.43;;
5904;SDS011;2978;42.012;24.880;2023-08-06T03:24:55;11.30;;;8.00;;
5904;SDS011;2978;42.012;24.880;2023-08-06T03:27:20;17.40;;;8.03;;
5904;SDS011;2978;42.012;24.880;2023-08-06T03:29:48;12.77;;;8.67;;
5904;SDS011;2978;42.012;24.880;2023-08-06T03:32:15;13.93;;;8.80;;
5904;SDS011;2978;42.012;24.880;2023-08-06T03:34:40;12.90;;;8.53;;
5904;SDS011;2978;42.012;24.880;2023-08-06T03:37:06;13.33;;;8.57;;
5904;SDS011;2978;42.012;24.880;2023-08-06T03:39:31;12.80;;;8.50;;
5904;SDS011;2978;42.012;24.880;2023-08-06T03:41:57;13.60;;;9.80;;
5904;SDS011;2978;42.012;24.880;2023-08-06T03:44:22;17.70;;;9.50;;
5904;SDS011;2978;42.012;24.880;2023-08-06T03:46:47;13.70;;;9.20;;
5904;SDS011;2978;42.012;24.880;2023-08-06T03:49:13;13.93;;;9.10;;
5904;SDS011;2978;42.012;24.880;2023-08-06T03:51:38;12.37;;;9.03;;
5904;SDS011;2978;42.012;24.880;2023-08-06T03:54:04;13.60;;;9.20;;
5904;SDS011;2978;42.012;24.880;2023-08-06T03:56:29;13.60;;;8.23;;
5904;SDS011;2978;42.012;24.880;2023-08-06T03:58:54;13.20;;;7.33;;
5904;SDS011;2978;42.012;24.880;2023-08-06T04:01:20;15.87;;;8.60;;
5904;SDS011;2978;42.012;24.880;2023-08-06T04:03:45;11.60;;;8.00;;
5904;SDS011;2978;42.012;24.880;2023-08-06T04:06:11;13.00;;;8.60;;
5904;SDS011;2978;42.012;24.880;2023-08-06T04:08:36;14.13;;;8.90;;
5904;SDS011;2978;42.012;24.880;2023-08-06T04:11:02;11.33;;;8.73;;
5904;SDS011;2978;42.012;24.880;2023-08-06T04:13:28;12.73;;;9.90;;
5904;SDS011;2978;42.012;24.880;2023-08-06T04:15:53;12.10;;;9.80;;
5904;SDS011;2978;42.012;24.880;2023-08-06T04:18:19;18.13;;;10.20;;
5904;SDS011;2978;42.012;24.880;2023-08-06T04:20:45;25.53;;;13.43;;
5904;SDS011;2978;42.012;24.880;2023-08-06T04:23:11;16.87;;;12.73;;
5904;SDS011;2978;42.012;24.880;2023-08-06T04:25:37;18.60;;;12.80;;
5904;SDS011;2978;42.012;24.880;2023-08-06T04:28:02;17.67;;;12.00;;
5904;SDS011;2978;42.012;24.880;2023-08-06T04:30:28;21.03;;;17.10;;
5904;SDS011;2978;42.012;24.880;2023-08-06T04:32:53;18.43;;;14.50;;
5904;SDS011;2978;42.012;24.880;2023-08-06T04:35:19;22.17;;;17.30;;
5904;SDS011;2978;42.012;24.880;2023-08-06T04:37:44;36.67;;;19.23;;
5904;SDS011;2978;42.012;24.880;2023-08-06T04:40:09;29.17;;;20.80;;
5904;SDS011;2978;42.012;24.880;2023-08-06T04:42:35;26.80;;;21.17;;
5904;SDS011;2978;42.012;24.880;2023-08-06T04:45:01;28.63;;;20.60;;
5904;SDS011;2978;42.012;24.880;2023-08-06T04:47:27;29.43;;;20.20;;
5904;SDS011;2978;42.012;24.880;2023-08-06T04:49:52;30.53;;;21.77;;
5904;SDS011;2978;42.012;24.880;2023-08-06T04:52:18;24.67;;;21.90;;
5904;SDS011;2978;42.012;24.880;2023-08-06T04:54:43;24.73;;;20.00;;
5904;SDS011;2978;42.012;24.880;2023-08-06T04:57:09;25.97;;;21.20;;
5904;SDS011;2978;42.012;24.880;2023-08-06T04:59:35;35.57;;;21.47;;
5904;SDS011;2978;42.012;24.880;2023-08-06T05:02:00;28.80;;;19.00;;
5904;SDS011;2978;42.012;24.880;2023-08-06T05:04:26;29.03;;;20.37;;
5904;SDS011;2978;42.012;24.880;2023-08-06T05:06:52;29.97;;;21.50;;
5904;SDS011;2978;42.012;24.880;2023-08-06T05:09:17;26.57;;;20.43;;
5904;SDS011;2978;42.012;24.880;2023-08-06T05:11:42;29.00;;;21.17;;
5904;SDS011;2978;42.012;24.880;2023-08-06T05:14:08;29.70;;;19.43;;
5904;SDS011;2978;42.012;24.880;2023-08-06T05:16:33;25.20;;;20.53;;
5904;SDS011;2978;42.012;24.880;2023-08-06T05:18:59;32.63;;;22.00;;
5904;SDS011;2978;42.012;24.880;2023-08-06T05:21:24;29.83;;;22.33;;
5904;SDS011;2978;42.012;24.880;2023-08-06T05:23:49;31.53;;;23.33;;
5904;SDS011;2978;42.012;24.880;2023-08-06T05:26:15;26.60;;;21.10;;
5904;SDS011;2978;42.012;24.880;2023-08-06T05:28:43;23.47;;;20.90;;
5904;SDS011;2978;42.012;24.880;2023-08-06T05:31:09;49.70;;;25.70;;
5904;SDS011;2978;42.012;24.880;2023-08-06T05:33:34;33.60;;;25.23;;
5904;SDS011;2978;42.012;24.880;2023-08-06T05:36:00;30.87;;;24.53;;
5904;SDS011;2978;42.012;24.880;2023-08-06T05:38:26;26.37;;;22.83;;
5904;SDS011;2978;42.012;24.880;2023-08-06T05:40:52;37.73;;;24.70;;
5904;SDS011;2978;42.012;24.880;2023-08-06T05:43:17;31.40;;;25.67;;
5904;SDS011;2978;42.012;24.880;2023-08-06T05:45:45;36.10;;;27.07;;
5904;SDS011;2978;42.012;24.880;2023-08-06T05:48:11;36.10;;;27.80;;
5904;SDS011;2978;42.012;24.880;2023-08-06T05:50:37;43.03;;;28.87;;
5904;SDS011;2978;42.012;24.880;2023-08-06T05:53:02;45.70;;;30.00;;
5904;SDS011;2978;42.012;24.880;2023-08-06T05:55:28;32.40;;;28.90;;
5904;SDS011;2978;42.012;24.880;2023-08-06T05:57:54;35.73;;;31.57;;
5904;SDS011;2978;42.012;24.880;2023-08-06T06:00:20;37.17;;;28.40;;
5904;SDS011;2978;42.012;24.880;2023-08-06T06:02:47;35.00;;;29.63;;
5904;SDS011;2978;42.012;24.880;2023-08-06T06:05:12;39.90;;;31.30;;
5904;SDS011;2978;42.012;24.880;2023-08-06T06:07:38;30.77;;;26.00;;
5904;SDS011;2978;42.012;24.880;2023-08-06T06:10:03;28.57;;;23.13;;
5904;SDS011;2978;42.012;24.880;2023-08-06T06:12:29;36.07;;;22.70;;
5904;SDS011;2978;42.012;24.880;2023-08-06T06:14:54;33.23;;;23.73;;
5904;SDS011;2978;42.012;24.880;2023-08-06T06:17:20;26.70;;;17.97;;
5904;SDS011;2978;42.012;24.880;2023-08-06T06:19:45;24.37;;;16.43;;
5904;SDS011;2978;42.012;24.880;2023-08-06T06:22:11;28.07;;;16.57;;
5904;SDS011;2978;42.012;24.880;2023-08-06T06:24:37;26.00;;;15.37;;
5904;SDS011;2978;42.012;24.880;2023-08-06T06:27:02;18.97;;;13.60;;
5904;SDS011;2978;42.012;24.880;2023-08-06T06:29:28;21.13;;;16.33;;
5904;SDS011;2978;42.012;24.880;2023-08-06T06:31:54;20.87;;;16.17;;
5904;SDS011;2978;42.012;24.880;2023-08-06T06:34:19;19.93;;;15.93;;
5904;SDS011;2978;42.012;24.880;2023-08-06T06:36:44;21.10;;;14.33;;
5904;SDS011;2978;42.012;24.880;2023-08-06T06:39:10;23.63;;;15.17;;
5904;SDS011;2978;42.012;24.880;2023-08-06T06:41:35;32.10;;;17.57;;
5904;SDS011;2978;42.012;24.880;2023-08-06T06:44:01;23.43;;;16.80;;
5904;SDS011;2978;42.012;24.880;2023-08-06T06:46:26;20.77;;;16.57;;
5904;SDS011;2978;42.012;24.880;2023-08-06T06:48:51;21.07;;;13.53;;
5904;SDS011;2978;42.012;24.880;2023-08-06T06:51:17;20.47;;;13.20;;
5904;SDS011;2978;42.012;24.880;2023-08-06T06:53:42;17.13;;;12.80;;
5904;SDS011;2978;42.012;24.880;2023-08-06T06:56:08;18.07;;;13.13;;
5904;SDS011;2978;42.012;24.880;2023-08-06T06:58:33;21.20;;;14.57;;
5904;SDS011;2978;42.012;24.880;2023-08-06T07:00:58;15.60;;;12.70;;
5904;SDS011;2978;42.012;24.880;2023-08-06T07:03:24;18.17;;;12.87;;
5904;SDS011;2978;42.012;24.880;2023-08-06T07:05:50;19.73;;;13.67;;
5904;SDS011;2978;42.012;24.880;2023-08-06T07:08:16;19.20;;;12.93;;
5904;SDS011;2978;42.012;24.880;2023-08-06T07:10:42;14.63;;;12.80;;
5904;SDS011;2978;42.012;24.880;2023-08-06T07:13:08;22.63;;;15.03;;
5904;SDS011;2978;42.012;24.880;2023-08-06T07:15:33;14.73;;;13.10;;
5904;SDS011;2978;42.012;24.880;2023-08-06T07:17:59;16.03;;;13.33;;
5904;SDS011;2978;42.012;24.880;2023-08-06T07:20:24;16.43;;;12.40;;
5904;SDS011;2978;42.012;24.880;2023-08-06T07:22:49;17.27;;;13.13;;
5904;SDS011;2978;42.012;24.880;2023-08-06T07:25:15;19.67;;;12.13;;
5904;SDS011;2978;42.012;24.880;2023-08-06T07:27:41;14.00;;;11.00;;
5904;SDS011;2978;42.012;24.880;2023-08-06T07:30:07;14.97;;;12.17;;
5904;SDS011;2978;42.012;24.880;2023-08-06T07:32:33;17.07;;;12.87;;
5904;SDS011;2978;42.012;24.880;2023-08-06T07:34:59;14.33;;;12.10;;
5904;SDS011;2978;42.012;24.880;2023-08-06T07:37:25;17.43;;;11.97;;
5904;SDS011;2978;42.012;24.880;2023-08-06T07:39:53;13.40;;;10.97;;
5904;SDS011;2978;42.012;24.880;2023-08-06T07:42:18;15.03;;;9.83;;
5904;SDS011;2978;42.012;24.880;2023-08-06T07:44:49;13.43;;;10.10;;
5904;SDS011;2978;42.012;24.880;2023-08-06T07:47:17;16.43;;;9.40;;
5904;SDS011;2978;42.012;24.880;2023-08-06T07:49:42;14.23;;;8.80;;
5904;SDS011;2978;42.012;24.880;2023-08-06T07:52:07;11.30;;;7.77;;
5904;SDS011;2978;42.012;24.880;2023-08-06T07:54:33;13.90;;;7.20;;
5904;SDS011;2978;42.012;24.880;2023-08-06T07:56:58;10.90;;;8.53;;
5904;SDS011;2978;42.012;24.880;2023-08-06T07:59:24;11.13;;;7.73;;
5904;SDS011;2978;42.012;24.880;2023-08-06T08:01:49;16.20;;;7.93;;
5904;SDS011;2978;42.012;24.880;2023-08-06T08:04:14;12.20;;;7.60;;
5904;SDS011;2978;42.012;24.880;2023-08-06T08:06:40;22.50;;;9.90;;
5904;SDS011;2978;42.012;24.880;2023-08-06T08:09:06;21.47;;;11.20;;
5904;SDS011;2978;42.012;24.880;2023-08-06T08:11:31;16.37;;;10.73;;
5904;SDS011;2978;42.012;24.880;2023-08-06T08:13:57;15.53;;;10.67;;
5904;SDS011;2978;42.012;24.880;2023-08-06T08:16:22;11.23;;;7.40;;
5904;SDS011;2978;42.012;24.880;2023-08-06T08:18:48;9.60;;;7.60;;
5904;SDS011;2978;42.012;24.880;2023-08-06T08:21:13;10.67;;;6.90;;
5904;SDS011;2978;42.012;24.880;2023-08-06T08:23:39;23.20;;;9.97;;
5904;SDS011;2978;42.012;24.880;2023-08-06T08:26:04;35.17;;;14.23;;
5904;SDS011;2978;42.012;24.880;2023-08-06T08:28:30;20.70;;;14.50;;
5904;SDS011;2978;42.012;24.880;2023-08-06T08:30:55;24.20;;;13.90;;
5904;SDS011;2978;42.012;24.880;2023-08-06T08:33:21;23.30;;;15.57;;
5904;SDS011;2978;42.012;24.880;2023-08-06T08:35:47;28.37;;;15.83;;
5904;SDS011;2978;42.012;24.880;2023-08-06T08:38:12;22.63;;;15.07;;
5904;SDS011;2978;42.012;24.880;2023-08-06T08:40:40;26.97;;;18.00;;
5904;SDS011;2978;42.012;24.880;2023-08-06T08:43:14;23.07;;;16.63;;
5904;SDS011;2978;42.012;24.880;2023-08-06T08:45:40;26.50;;;17.27;;
5904;SDS011;2978;42.012;24.880;2023-08-06T08:48:08;31.57;;;16.60;;
5904;SDS011;2978;42.012;24.880;2023-08-06T08:50:37;20.20;;;15.83;;
5904;SDS011;2978;42.012;24.880;2023-08-06T08:53:02;25.83;;;17.03;;
5904;SDS011;2978;42.012;24.880;2023-08-06T08:55:28;28.20;;;18.13;;
5904;SDS011;2978;42.012;24.880;2023-08-06T08:57:54;19.83;;;14.23;;
5904;SDS011;2978;42.012;24.880;2023-08-06T09:00:19;16.20;;;12.33;;
5904;SDS011;2978;42.012;24.880;2023-08-06T09:02:45;17.83;;;13.67;;
5904;SDS011;2978;42.012;24.880;2023-08-06T09:05:11;17.90;;;12.37;;
5904;SDS011;2978;42.012;24.880;2023-08-06T09:07:42;19.63;;;12.87;;
5904;SDS011;2978;42.012;24.880;2023-08-06T09:10:10;16.70;;;14.30;;
5904;SDS011;2978;42.012;24.880;2023-08-06T09:12:38;13.13;;;11.07;;
5904;SDS011;2978;42.012;24.880;2023-08-06T09:15:04;14.07;;;12.20;;
5904;SDS011;2978;42.012;24.880;2023-08-06T09:17:30;14.57;;;12.27;;
5904;SDS011;2978;42.012;24.880;2023-08-06T09:19:56;14.83;;;11.90;;
5904;SDS011;2978;42.012;24.880;2023-08-06T09:22:21;14.20;;;11.40;;
5904;SDS011;2978;42.012;24.880;2023-08-06T09:24:47;21.77;;;11.70;;
5904;SDS011;2978;42.012;24.880;2023-08-06T09:27:13;20.83;;;11.67;;
5904;SDS011;2978;42.012;24.880;2023-08-06T09:29:42;14.77;;;10.83;;
5904;SDS011;2978;42.012;24.880;2023-08-06T09:32:08;9.40;;;8.40;;
5904;SDS011;2978;42.012;24.880;2023-08-06T09:34:34;15.10;;;9.03;;
5904;SDS011;2978;42.012;24.880;2023-08-06T09:36:59;12.33;;;9.00;;
5904;SDS011;2978;42.012;24.880;2023-08-06T09:39:28;15.30;;;9.87;;
5904;SDS011;2978;42.012;24.880;2023-08-06T09:41:58;24.17;;;8.50;;
5904;SDS011;2978;42.012;24.880;2023-08-06T09:44:25;10.23;;;7.60;;
5904;SDS011;2978;42.012;24.880;2023-08-06T09:46:53;10.53;;;6.23;;
5904;SDS011;2978;42.012;24.880;2023-08-06T09:49:19;9.00;;;6.70;;
5904;SDS011;2978;42.012;24.880;2023-08-06T09:51:46;14.53;;;8.73;;
5904;SDS011;2978;42.012;24.880;2023-08-06T09:54:15;20.60;;;9.83;;
5904;SDS011;2978;42.012;24.880;2023-08-06T09:56:41;11.37;;;6.40;;
5904;SDS011;2978;42.012;24.880;2023-08-06T09:59:07;6.80;;;5.50;;
5904;SDS011;2978;42.012;24.880;2023-08-06T10:01:34;5.97;;;4.87;;
5904;SDS011;2978;42.012;24.880;2023-08-06T10:04:01;7.47;;;5.70;;
5904;SDS011;2978;42.012;24.880;2023-08-06T10:06:28;8.53;;;6.43;;
5904;SDS011;2978;42.012;24.880;2023-08-06T10:08:54;6.90;;;6.00;;
5904;SDS011;2978;42.012;24.880;2023-08-06T10:11:24;6.50;;;5.20;;
5904;SDS011;2978;42.012;24.880;2023-08-06T10:13:51;7.27;;;6.10;;
5904;SDS011;2978;42.012;24.880;2023-08-06T10:16:23;10.10;;;5.77;;
5904;SDS011;2978;42.012;24.880;2023-08-06T10:18:50;5.67;;;5.00;;
5904;SDS011;2978;42.012;24.880;2023-08-06T10:21:16;13.83;;;5.00;;
5904;SDS011;2978;42.012;24.880;2023-08-06T10:23:42;8.50;;;6.10;;
5904;SDS011;2978;42.012;24.880;2023-08-06T10:26:07;12.23;;;6.73;;
5904;SDS011;2978;42.012;24.880;2023-08-06T10:28:33;6.03;;;5.43;;
5904;SDS011;2978;42.012;24.880;2023-08-06T10:31:02;6.83;;;5.50;;
5904;SDS011;2978;42.012;24.880;2023-08-06T10:33:44;7.40;;;6.43;;
5904;SDS011;2978;42.012;24.880;2023-08-06T10:36:11;8.10;;;6.50;;
5904;SDS011;2978;42.012;24.880;2023-08-06T10:38:46;8.33;;;6.53;;
5904;SDS011;2978;42.012;24.880;2023-08-06T10:41:22;12.63;;;7.20;;
5904;SDS011;2978;42.012;24.880;2023-08-06T10:43:52;11.17;;;7.47;;
5904;SDS011;2978;42.012;24.880;2023-08-06T10:46:21;11.03;;;7.07;;
5904;SDS011;2978;42.012;24.880;2023-08-06T10:48:48;8.60;;;5.60;;
5904;SDS011;2978;42.012;24.880;2023-08-06T10:51:14;9.40;;;5.70;;
5904;SDS011;2978;42.012;24.880;2023-08-06T10:53:43;13.33;;;6.67;;
5904;SDS011;2978;42.012;24.880;2023-08-06T10:56:17;8.17;;;6.17;;
5904;SDS011;2978;42.012;24.880;2023-08-06T10:58:44;8.53;;;6.33;;
5904;SDS011;2978;42.012;24.880;2023-08-06T11:01:10;8.30;;;6.00;;
5904;SDS011;2978;42.012;24.880;2023-08-06T11:03:36;7.40;;;6.17;;
5904;SDS011;2978;42.012;24.880;2023-08-06T11:06:03;14.37;;;5.87;;
5904;SDS011;2978;42.012;24.880;2023-08-06T11:08:32;8.00;;;5.90;;
5904;SDS011;2978;42.012;24.880;2023-08-06T11:13:39;14.37;;;7.93;;
5904;SDS011;2978;42.012;24.880;2023-08-06T11:16:08;7.20;;;6.50;;
5904;SDS011;2978;42.012;24.880;2023-08-06T11:18:35;7.27;;;6.50;;
5904;SDS011;2978;42.012;24.880;2023-08-06T11:21:00;7.67;;;6.40;;
5904;SDS011;2978;42.012;24.880;2023-08-06T11:23:27;8.23;;;6.23;;
5904;SDS011;2978;42.012;24.880;2023-08-06T11:25:53;8.70;;;7.00;;
5904;SDS011;2978;42.012;24.880;2023-08-06T11:28:20;10.50;;;6.37;;
5904;SDS011;2978;42.012;24.880;2023-08-06T11:30:48;11.00;;;7.17;;
5904;SDS011;2978;42.012;24.880;2023-08-06T11:33:20;10.23;;;6.17;;
5904;SDS011;2978;42.012;24.880;2023-08-06T11:35:47;7.60;;;6.80;;
5904;SDS011;2978;42.012;24.880;2023-08-06T11:38:13;9.03;;;5.93;;
5904;SDS011;2978;42.012;24.880;2023-08-06T11:40:38;9.50;;;5.97;;
5904;SDS011;2978;42.012;24.880;2023-08-06T11:43:05;8.93;;;6.40;;
5904;SDS011;2978;42.012;24.880;2023-08-06T11:45:34;7.17;;;6.10;;
5904;SDS011;2978;42.012;24.880;2023-08-06T11:48:00;10.93;;;6.50;;
5904;SDS011;2978;42.012;24.880;2023-08-06T11:50:25;8.43;;;6.33;;
5904;SDS011;2978;42.012;24.880;2023-08-06T11:52:56;7.63;;;6.53;;
5904;SDS011;2978;42.012;24.880;2023-08-06T11:55:23;9.47;;;7.03;;
5904;SDS011;2978;42.012;24.880;2023-08-06T11:57:49;8.37;;;6.80;;
5904;SDS011;2978;42.012;24.880;2023-08-06T12:00:15;8.50;;;7.07;;
5904;SDS011;2978;42.012;24.880;2023-08-06T12:02:43;7.60;;;6.80;;
5904;SDS011;2978;42.012;24.880;2023-08-06T12:05:16;13.20;;;6.67;;
5904;SDS011;2978;42.012;24.880;2023-08-06T12:07:49;12.63;;;6.50;;
5904;SDS011;2978;42.012;24.880;2023-08-06T12:10:17;6.90;;;5.10;;
5904;SDS011;2978;42.012;24.880;2023-08-06T12:12:44;7.50;;;5.23;;
5904;SDS011;2978;42.012;24.880;2023-08-06T12:15:10;7.17;;;5.43;;
5904;SDS011;2978;42.012;24.880;2023-08-06T12:17:36;5.23;;;4.73;;
5904;SDS011;2978;42.012;24.880;2023-08-06T12:20:03;7.20;;;5.20;;
5904;SDS011;2978;42.012;24.880;2023-08-06T12:22:29;11.93;;;5.40;;
5904;SDS011;2978;42.012;24.880;2023-08-06T12:24:59;7.63;;;4.70;;
5904;SDS011;2978;42.012;24.880;2023-08-06T12:27:25;5.10;;;4.60;;
5904;SDS011;2978;42.012;24.880;2023-08-06T12:29:51;5.90;;;4.97;;
5904;SDS011;2978;42.012;24.880;2023-08-06T12:32:17;6.60;;;4.33;;
5904;SDS011;2978;42.012;24.880;2023-08-06T12:34:42;11.00;;;5.43;;
5904;SDS011;2978;42.012;24.880;2023-08-06T12:37:08;5.93;;;5.10;;
5904;SDS011;2978;42.012;24.880;2023-08-06T12:39:34;11.87;;;5.67;;
5904;SDS011;2978;42.012;24.880;2023-08-06T12:42:01;11.50;;;5.50;;
5904;SDS011;2978;42.012;24.880;2023-08-06T12:44:27;9.80;;;5.33;;
5904;SDS011;2978;42.012;24.880;2023-08-06T12:46:53;9.17;;;4.43;;
5904;SDS011;2978;42.012;24.880;2023-08-06T12:49:19;8.10;;;5.10;;
5904;SDS011;2978;42.012;24.880;2023-08-06T12:51:48;5.70;;;4.03;;
5904;SDS011;2978;42.012;24.880;2023-08-06T12:54:16;5.13;;;3.97;;
5904;SDS011;2978;42.012;24.880;2023-08-06T12:56:42;5.17;;;3.27;;
5904;SDS011;2978;42.012;24.880;2023-08-06T12:59:07;5.77;;;3.30;;
5904;SDS011;2978;42.012;24.880;2023-08-06T13:01:33;5.40;;;3.40;;
5904;SDS011;2978;42.012;24.880;2023-08-06T13:03:59;11.90;;;3.43;;
5904;SDS011;2978;42.012;24.880;2023-08-06T13:06:25;5.10;;;3.60;;
5904;SDS011;2978;42.012;24.880;2023-08-06T13:08:50;3.63;;;3.00;;
5904;SDS011;2978;42.012;24.880;2023-08-06T13:11:16;4.70;;;3.30;;
5904;SDS011;2978;42.012;24.880;2023-08-06T13:13:41;7.77;;;3.57;;
5904;SDS011;2978;42.012;24.880;2023-08-06T13:16:07;6.53;;;3.13;;
5904;SDS011;2978;42.012;24.880;2023-08-06T13:18:32;18.30;;;3.30;;
5904;SDS011;2978;42.012;24.880;2023-08-06T13:20:57;4.40;;;3.07;;
5904;SDS011;2978;42.012;24.880;2023-08-06T13:23:23;6.33;;;2.93;;
5904;SDS011;2978;42.012;24.880;2023-08-06T13:25:48;4.87;;;2.73;;
5904;SDS011;2978;42.012;24.880;2023-08-06T13:28:14;5.97;;;2.80;;
5904;SDS011;2978;42.012;24.880;2023-08-06T13:30:39;9.00;;;2.60;;
5904;SDS011;2978;42.012;24.880;2023-08-06T13:33:10;8.47;;;3.00;;
5904;SDS011;2978;42.012;24.880;2023-08-06T13:35:36;9.00;;;3.57;;
5904;SDS011;2978;42.012;24.880;2023-08-06T13:38:02;7.70;;;3.07;;
5904;SDS011;2978;42.012;24.880;2023-08-06T13:40:33;5.70;;;2.87;;
5904;SDS011;2978;42.012;24.880;2023-08-06T13:42:59;6.23;;;2.63;;
5904;SDS011;2978;42.012;24.880;2023-08-06T13:45:25;3.40;;;2.50;;
5904;SDS011;2978;42.012;24.880;2023-08-06T13:47:51;3.37;;;2.57;;
5904;SDS011;2978;42.012;24.880;2023-08-06T13:50:16;5.57;;;2.67;;
5904;SDS011;2978;42.012;24.880;2023-08-06T13:52:42;5.47;;;2.90;;
5904;SDS011;2978;42.012;24.880;2023-08-06T13:55:07;5.20;;;2.87;;
5904;SDS011;2978;42.012;24.880;2023-08-06T13:57:36;4.73;;;2.90;;
5904;SDS011;2978;42.012;24.880;2023-08-06T14:00:02;3.27;;;2.20;;
5904;SDS011;2978;42.012;24.880;2023-08-06T14:02:28;5.30;;;3.33;;
5904;SDS011;2978;42.012;24.880;2023-08-06T14:04:54;3.50;;;2.50;;
5904;SDS011;2978;42.012;24.880;2023-08-06T14:07:20;5.63;;;3.20;;
5904;SDS011;2978;42.012;24.880;2023-08-06T14:09:45;6.33;;;2.33;;
5904;SDS011;2978;42.012;24.880;2023-08-06T14:12:12;3.83;;;2.53;;
5904;SDS011;2978;42.012;24.880;2023-08-06T14:14:38;8.50;;;2.57;;
5904;SDS011;2978;42.012;24.880;2023-08-06T14:17:03;9.90;;;2.70;;
5904;SDS011;2978;42.012;24.880;2023-08-06T14:19:28;6.90;;;2.97;;
5904;SDS011;2978;42.012;24.880;2023-08-06T14:21:54;5.00;;;2.90;;
5904;SDS011;2978;42.012;24.880;2023-08-06T14:24:20;14.13;;;3.10;;
5904;SDS011;2978;42.012;24.880;2023-08-06T14:26:46;15.67;;;3.60;;
5904;SDS011;2978;42.012;24.880;2023-08-06T14:29:11;4.20;;;2.40;;
5904;SDS011;2978;42.012;24.880;2023-08-06T14:31:38;5.20;;;2.50;;
5904;SDS011;2978;42.012;24.880;2023-08-06T14:34:04;3.63;;;2.63;;
5904;SDS011;2978;42.012;24.880;2023-08-06T14:36:29;3.90;;;2.47;;
5904;SDS011;2978;42.012;24.880;2023-08-06T14:38:55;3.17;;;2.20;;
5904;SDS011;2978;42.012;24.880;2023-08-06T14:41:20;9.90;;;2.77;;
5904;SDS011;2978;42.012;24.880;2023-08-06T14:43:46;4.77;;;2.10;;
5904;SDS011;2978;42.012;24.880;2023-08-06T14:46:11;6.87;;;2.20;;
5904;SDS011;2978;42.012;24.880;2023-08-06T14:48:37;2.60;;;2.00;;